Brisas del Sur, Puerto Rico
Current Conditions -  °F | °C
As of 3:56 PM on Wednesday 28 Jan 2015 (Local Time) from TJSJ Reporting Station
Scattered Clouds Scattered Clouds  
Wind Chill: 87°   Ceiling: Unl
Heat Index: 91°   Visibility: 10mi
Dew Point: 68°   Wind: 7mph
Humidity: 53%   Direction: NA
Pressure: 29.94"   Gusts: NA
Location:  18.0561°N, 66.5063°W
Report Text: TJSJ 281956Z VRB06KT 10SM FEW037 SCT048 31/20 A2994 RMK AO2 SLP137 T03060200
Loading
Personal Weather Stations






























Interactive Weather Map New forecast layout! Learn more

10-Day Weather Forecast

Advertisements
Track Severe Weather on mobile